createdAt,value
2022-08-05T00:01:48.845Z,100016.92
2022-08-05T00:04:19.568Z,100015.92
2022-08-05T00:06:51.829Z,100013.86
2022-08-05T00:09:21.147Z,100010.72
2022-08-05T00:11:55.352Z,100013.20
2022-08-05T00:14:27.594Z,100009.83
2022-08-05T00:16:58.839Z,100009.89
2022-08-05T00:19:33.605Z,100005.11
2022-08-05T00:22:14.107Z,100005.59
2022-08-05T00:24:45.888Z,100004.45
2022-08-05T00:27:35.731Z,100006.83
2022-08-05T00:30:05.801Z,100000.30
2022-08-05T00:32:40.579Z,100002.42
2022-08-05T00:35:08.968Z,100002.08
2022-08-05T00:37:53.547Z,100001.35
2022-08-05T00:40:28.275Z,99999.44
2022-08-05T00:43:02.742Z,99994.35
2022-08-05T00:45:38.716Z,99993.92
2022-08-05T00:48:14.417Z,99991.98
2022-08-05T00:50:46.134Z,99989.54
2022-08-05T00:54:00.841Z,99983.44
2022-08-05T00:56:09.548Z,99986.63
2022-08-05T00:58:40.459Z,99985.95
2022-08-05T01:01:15.795Z,99985.05
2022-08-05T01:03:56.107Z,99984.48
2022-08-05T01:06:32.406Z,99977.90
2022-08-05T01:09:00.664Z,99978.61
2022-08-05T01:11:37.409Z,99979.42
2022-08-05T01:14:15.605Z,99973.73
2022-08-05T01:17:06.209Z,99974.09
2022-08-05T01:20:01.428Z,99969.72
2022-08-05T01:22:39.463Z,99967.14
2022-08-05T01:25:43.153Z,99964.40
2022-08-05T01:28:35.908Z,99963.69
2022-08-05T01:31:19.371Z,99960.61
2022-08-05T01:33:55.808Z,99954.92
2022-08-05T01:36:30.028Z,99956.02
2022-08-05T01:39:00.974Z,99959.05
2022-08-05T01:41:35.504Z,99956.90
2022-08-05T01:44:11.180Z,99955.95
2022-08-05T01:46:46.289Z,99956.15
2022-08-05T01:49:24.874Z,99953.80
2022-08-05T01:52:00.140Z,99955.31
2022-08-05T01:54:45.824Z,99952.94
2022-08-05T01:58:29.147Z,99951.20
2022-08-05T02:00:13.001Z,99947.60
2022-08-05T02:02:53.693Z,99946.89
2022-08-05T02:05:31.307Z,99950.60
2022-08-05T02:08:03.931Z,99947.14
2022-08-05T02:10:40.158Z,99942.23
2022-08-05T02:13:20.548Z,99943.76
2022-08-05T02:15:57.226Z,99943.16
2022-08-05T02:18:34.892Z,99941.23
2022-08-05T02:21:15.169Z,99939.26
2022-08-05T02:23:50.516Z,99940.90
2022-08-05T02:26:27.691Z,99940.00
2022-08-05T02:28:58.523Z,99934.34
2022-08-05T02:31:34.789Z,99933.75
2022-08-05T02:34:06.875Z,99933.58
2022-08-05T02:36:44.092Z,99931.92
2022-08-05T02:39:15.265Z,99934.70
2022-08-05T02:42:00.337Z,99931.70
2022-08-05T02:44:31.114Z,99931.19
2022-08-05T02:47:01.113Z,99933.05
2022-08-05T02:49:40.525Z,99929.53
2022-08-05T02:52:29.326Z,99931.39
2022-08-05T02:55:01.958Z,99934.15
2022-08-05T02:58:20.224Z,99931.15
2022-08-05T03:00:26.855Z,99924.92
2022-08-05T03:02:58.413Z,99924.20
2022-08-05T03:06:56.886Z,99918.77
2022-08-05T03:08:16.554Z,99916.16
2022-08-05T03:11:41.277Z,99917.99
2022-08-05T03:13:51.839Z,99914.89
2022-08-05T03:16:24.253Z,99913.94
2022-08-05T03:18:53.400Z,99913.10
2022-08-05T03:21:22.751Z,99911.35
2022-08-05T03:23:58.266Z,99909.95
2022-08-05T03:26:31.828Z,99907.27
2022-08-05T03:29:01.424Z,99908.52
2022-08-05T03:31:55.971Z,99907.41
2022-08-05T03:34:19.392Z,99902.48
2022-08-05T03:36:52.336Z,99902.86
2022-08-05T03:39:26.744Z,99900.63
2022-08-05T03:41:56.374Z,99903.90
2022-08-05T03:44:25.890Z,99903.63
2022-08-05T03:46:57.460Z,99904.19
2022-08-05T03:49:31.129Z,99905.95
2022-08-05T03:52:38.457Z,99903.55
2022-08-05T03:56:05.390Z,99905.09
2022-08-05T03:58:08.202Z,99904.87
2022-08-05T04:00:41.930Z,99906.13
2022-08-05T04:03:15.036Z,99905.88
2022-08-05T04:05:59.195Z,99903.86
2022-08-05T04:08:39.277Z,99901.59
2022-08-05T04:11:09.896Z,99898.20
2022-08-05T04:13:50.190Z,99898.04
2022-08-05T04:16:25.548Z,99898.98
2022-08-05T04:19:00.573Z,99899.60
2022-08-05T04:22:09.086Z,99902.77
2022-08-05T04:24:22.542Z,99897.46
2022-08-05T04:26:51.401Z,99896.30
2022-08-05T04:29:19.783Z,99895.79
2022-08-05T04:31:48.497Z,99895.75
2022-08-05T04:34:33.844Z,99890.66
2022-08-05T04:37:03.910Z,99892.54
2022-08-05T04:39:35.388Z,99891.84
2022-08-05T04:42:03.961Z,99887.36
2022-08-05T04:44:34.395Z,99896.21
2022-08-05T04:47:08.961Z,99897.57
2022-08-05T04:50:02.113Z,99892.41
2022-08-05T04:52:33.278Z,99894.48
2022-08-05T04:55:14.321Z,99895.66
2022-08-05T04:57:48.034Z,99898.42
2022-08-05T05:00:23.371Z,99900.70
2022-08-05T05:02:53.161Z,99904.23
2022-08-05T05:05:28.216Z,99901.45
2022-08-05T05:08:02.177Z,99905.50
2022-08-05T05:10:34.298Z,99904.75
2022-08-05T05:13:04.099Z,99903.77
2022-08-05T05:15:57.365Z,99907.13
2022-08-05T05:18:28.258Z,99905.70
2022-08-05T05:20:59.337Z,99905.91
2022-08-05T05:23:39.348Z,99900.91
2022-08-05T05:26:17.114Z,99896.98
2022-08-05T05:28:46.297Z,99898.94
2022-08-05T05:31:14.342Z,99898.30
2022-08-05T05:34:01.709Z,99895.87
2022-08-05T05:36:32.107Z,99892.96
2022-08-05T05:39:00.434Z,99894.59
2022-08-05T05:41:40.164Z,99895.06
2022-08-05T05:44:15.746Z,99898.20
2022-08-05T05:47:04.076Z,99897.50
2022-08-05T05:49:33.495Z,99895.42
2022-08-05T05:52:06.017Z,99898.13
2022-08-05T05:54:50.473Z,99899.27
2022-08-05T05:57:20.451Z,99903.38
2022-08-05T05:59:49.332Z,99903.64
2022-08-05T06:02:36.923Z,99902.13
2022-08-05T06:05:16.958Z,99895.85
2022-08-05T06:08:01.112Z,99898.12
2022-08-05T06:10:36.197Z,99899.86
2022-08-05T06:13:05.378Z,99895.57
2022-08-05T06:16:29.806Z,99897.25
2022-08-05T06:18:31.326Z,99897.05
2022-08-05T06:21:01.428Z,99893.02
2022-08-05T06:23:32.066Z,99896.42
2022-08-05T06:26:21.263Z,99896.63
2022-08-05T06:28:54.559Z,99898.60
2022-08-05T06:31:22.670Z,99899.64
2022-08-05T06:34:07.716Z,99892.80
2022-08-05T06:36:53.572Z,99893.07
2022-08-05T06:39:28.565Z,99892.05
2022-08-05T06:42:04.077Z,99896.98
2022-08-05T06:44:34.782Z,99894.10
2022-08-05T06:47:03.137Z,99895.61
2022-08-05T06:50:00.849Z,99895.58
2022-08-05T06:52:37.723Z,99895.27
2022-08-05T06:55:08.067Z,99885.38
2022-08-05T06:58:03.751Z,99892.05
2022-08-05T07:00:25.425Z,99891.50
2022-08-05T07:02:54.420Z,99890.81
2022-08-05T07:05:31.817Z,99889.57
2022-08-05T07:08:10.823Z,99888.60
2022-08-05T07:10:53.467Z,99886.64
2022-08-05T07:13:59.484Z,99879.77
2022-08-05T07:17:56.196Z,99881.90
2022-08-05T07:22:28.682Z,99879.85
2022-08-05T07:25:23.584Z,99879.79
2022-08-05T07:27:58.240Z,99875.27
2022-08-05T07:30:33.774Z,99880.59
2022-08-05T07:33:05.543Z,99877.63
2022-08-05T07:36:01.486Z,99862.91
2022-08-05T07:38:34.292Z,99869.97
2022-08-05T07:42:07.277Z,99872.86
2022-08-05T07:43:56.667Z,99874.38
2022-08-05T07:46:28.925Z,99872.69
2022-08-05T07:49:03.564Z,99874.88
2022-08-05T07:51:40.208Z,99875.84
2022-08-05T07:54:10.054Z,99869.15
2022-08-05T07:57:14.690Z,99865.83
2022-08-05T07:59:38.244Z,99866.28
2022-08-05T08:02:16.554Z,99867.84
2022-08-05T08:04:48.237Z,99873.94
2022-08-05T08:07:22.025Z,99871.11
2022-08-05T08:09:52.918Z,99874.48
2022-08-05T08:12:35.611Z,99868.63
2022-08-05T08:15:15.680Z,99866.02
2022-08-05T08:17:50.585Z,99860.26
2022-08-05T08:21:00.287Z,99855.95
2022-08-05T08:24:01.380Z,99858.88
2022-08-05T08:26:02.623Z,99858.16
2022-08-05T08:28:36.566Z,99856.05
2022-08-05T08:31:21.148Z,99855.78
2022-08-05T08:33:51.694Z,99851.55
2022-08-05T08:36:38.428Z,99852.24
2022-08-05T08:39:15.613Z,99853.90
2022-08-05T08:41:52.657Z,99853.71
2022-08-05T08:45:17.714Z,99854.52
2022-08-05T08:48:06.434Z,99852.55
2022-08-05T08:50:31.580Z,99850.38
2022-08-05T08:53:08.104Z,99848.95
2022-08-05T08:56:04.843Z,99852.68
2022-08-05T08:58:43.370Z,99843.73
2022-08-05T09:01:18.360Z,99842.04
2022-08-05T09:03:54.567Z,99848.36
2022-08-05T09:06:30.705Z,99846.14
2022-08-05T09:09:01.597Z,99846.69
2022-08-05T09:11:52.906Z,99839.34
2022-08-05T09:14:58.633Z,99839.97
2022-08-05T09:17:40.441Z,99834.81
2022-08-05T09:20:09.476Z,99831.16
2022-08-05T09:23:09.330Z,99834.08
2022-08-05T09:26:01.797Z,99834.60
2022-08-05T09:28:32.065Z,99834.23
2022-08-05T09:32:39.967Z,99832.27
2022-08-05T09:34:26.111Z,99831.39
2022-08-05T09:36:59.376Z,99832.83
2022-08-05T09:39:44.791Z,99829.02
2022-08-05T09:42:23.532Z,99826.46
2022-08-05T09:44:57.419Z,99825.28
2022-08-05T09:47:36.484Z,99817.65
2022-08-05T09:50:37.966Z,99821.49
2022-08-05T09:53:06.715Z,99818.39
2022-08-05T09:55:57.336Z,99820.54
2022-08-05T09:58:26.679Z,99820.00
2022-08-05T10:01:01.857Z,99815.83
2022-08-05T10:03:59.659Z,99820.53
2022-08-05T10:06:31.364Z,99817.89
2022-08-05T10:09:24.994Z,99819.57
2022-08-05T10:12:30.138Z,99818.59
2022-08-05T10:15:17.137Z,99819.77
2022-08-05T10:18:04.029Z,99812.57
2022-08-05T10:20:44.146Z,99818.28
2022-08-05T10:23:50.928Z,99812.55
2022-08-05T10:26:15.048Z,99813.45
2022-08-05T10:28:46.409Z,99808.80
2022-08-05T10:32:52.875Z,99805.23
2022-08-05T10:34:06.945Z,99803.70
2022-08-05T10:36:37.686Z,99805.92
2022-08-05T10:39:24.890Z,99802.36
2022-08-05T10:42:11.903Z,99797.17
2022-08-05T10:44:44.730Z,99790.73
2022-08-05T10:47:26.805Z,99786.52
2022-08-05T10:50:32.065Z,99785.80
2022-08-05T10:53:04.371Z,99785.45
2022-08-05T10:56:03.350Z,99788.48
2022-08-05T10:58:22.736Z,99786.13
2022-08-05T11:01:06.547Z,99785.86
2022-08-05T11:04:12.560Z,99785.11
2022-08-05T11:07:01.576Z,99780.98
2022-08-05T11:10:04.110Z,99783.70
2022-08-05T11:12:54.887Z,99779.30
2022-08-05T11:16:00.044Z,99780.31
2022-08-05T11:18:35.324Z,99780.38
2022-08-05T11:21:11.678Z,99783.07
2022-08-05T11:24:04.589Z,99777.87
2022-08-05T11:26:43.292Z,99773.34
2022-08-05T11:29:59.354Z,99764.83
2022-08-05T11:32:31.933Z,99769.40
2022-08-05T11:35:00.932Z,99768.80
2022-08-05T11:38:26.173Z,99774.21
2022-08-05T11:41:58.153Z,99778.63
2022-08-05T11:44:12.770Z,99773.97
2022-08-05T11:47:11.810Z,99769.33
2022-08-05T11:49:43.358Z,99771.34
2022-08-05T11:52:29.889Z,99774.30
2022-08-05T11:55:07.344Z,99778.27
2022-08-05T11:58:08.046Z,99772.42
2022-08-05T12:00:31.177Z,99768.22
2022-08-05T12:03:16.308Z,99768.17
2022-08-05T12:06:01.764Z,99765.55
2022-08-05T12:08:32.777Z,99760.76
2022-08-05T12:11:05.848Z,99760.84
2022-08-05T12:13:48.802Z,99758.59
2022-08-05T12:16:28.475Z,99760.05
2022-08-05T12:18:56.749Z,99754.42
2022-08-05T12:21:30.144Z,99756.42
2022-08-05T12:24:26.235Z,99749.48
2022-08-05T12:26:55.124Z,99748.51
2022-08-05T12:29:25.042Z,99753.27
2022-08-05T12:32:02.012Z,99754.32
2022-08-05T12:34:35.780Z,99749.15
2022-08-05T12:37:17.614Z,99753.44
2022-08-05T12:39:53.842Z,99751.39
2022-08-05T12:42:25.399Z,99749.95
2022-08-05T12:45:08.809Z,99746.71
2022-08-05T12:47:43.460Z,99743.56
2022-08-05T12:50:30.980Z,99739.08
2022-08-05T12:53:02.924Z,99740.85
2022-08-05T12:55:35.420Z,99741.54
2022-08-05T12:58:49.608Z,99741.14
2022-08-05T13:02:02.930Z,99738.29
2022-08-05T13:03:42.506Z,99742.50
2022-08-05T13:06:18.128Z,99737.63
2022-08-05T13:08:51.965Z,99735.46
2022-08-05T13:12:02.352Z,99735.45
2022-08-05T13:14:20.110Z,99737.36
2022-08-05T13:16:56.566Z,99730.52
2022-08-05T13:19:52.489Z,99729.30
2022-08-05T13:22:28.263Z,99731.84
2022-08-05T13:25:19.559Z,99727.27
2022-08-05T13:27:52.783Z,99721.38
2022-08-05T13:30:35.041Z,99719.45
2022-08-05T13:33:04.840Z,99721.77
2022-08-05T13:35:43.049Z,99717.14
2022-08-05T13:38:20.348Z,99712.58
2022-08-05T13:41:02.872Z,99719.02
2022-08-05T13:43:45.098Z,99715.73
2022-08-05T13:46:30.783Z,99714.88
2022-08-05T13:49:10.427Z,99717.13
2022-08-05T13:51:46.111Z,99716.95
2022-08-05T13:54:24.900Z,99720.11
2022-08-05T13:56:53.658Z,99717.38
2022-08-05T13:59:24.337Z,99715.48
2022-08-05T14:01:56.532Z,99715.05
2022-08-05T14:04:51.369Z,99707.83
2022-08-05T14:07:26.322Z,99701.15
2022-08-05T14:10:30.845Z,99700.61
2022-08-05T14:12:59.995Z,99701.77
2022-08-05T14:16:09.087Z,99703.40
2022-08-05T14:18:23.499Z,99701.53
2022-08-05T14:20:54.814Z,99699.89
2022-08-05T14:23:25.841Z,99699.30
2022-08-05T14:25:58.763Z,99699.09
2022-08-05T14:28:29.889Z,99697.91
2022-08-05T14:31:01.490Z,99693.39
2022-08-05T14:33:32.509Z,99692.49
2022-08-05T14:36:21.444Z,99689.00
2022-08-05T14:38:51.017Z,99693.16
2022-08-05T14:41:19.036Z,99694.60
2022-08-05T14:43:57.799Z,99691.52
2022-08-05T14:46:31.036Z,99690.85
2022-08-05T14:49:06.483Z,99692.34
2022-08-05T14:51:37.606Z,99689.42
2022-08-05T14:54:27.918Z,99688.34
2022-08-05T14:56:58.813Z,99687.84
2022-08-05T14:59:29.614Z,99683.55
2022-08-05T15:02:15.039Z,99679.48
2022-08-05T15:04:47.885Z,99674.63
2022-08-05T15:08:11.518Z,99670.70
2022-08-05T15:10:09.589Z,99671.83
2022-08-05T15:12:58.001Z,99670.15
2022-08-05T15:15:55.762Z,99665.36
2022-08-05T15:18:17.229Z,99668.14
2022-08-05T15:20:46.345Z,99667.66
2022-08-05T15:23:14.428Z,99668.45
2022-08-05T15:25:52.060Z,99669.80
2022-08-05T15:28:27.229Z,99668.73
2022-08-05T15:30:57.005Z,99670.77
2022-08-05T15:34:18.849Z,99668.70
2022-08-05T15:36:17.707Z,99667.42
2022-08-05T15:41:00.017Z,99663.77
2022-08-05T15:41:57.569Z,99660.97
2022-08-05T15:44:30.063Z,99659.26
2022-08-05T15:47:01.658Z,99654.75
2022-08-05T15:49:48.151Z,99657.94
2022-08-05T15:52:51.618Z,99655.65
2022-08-05T15:55:16.078Z,99651.35
2022-08-05T15:57:45.103Z,99643.73
2022-08-05T16:00:16.799Z,99640.63
2022-08-05T16:02:44.898Z,99641.41
2022-08-05T16:05:12.750Z,99640.61
2022-08-05T16:07:46.614Z,99638.52
2022-08-05T16:10:19.156Z,99642.88
2022-08-05T16:12:55.880Z,99643.30
2022-08-05T16:15:24.431Z,99645.36
2022-08-05T16:18:00.960Z,99643.77
2022-08-05T16:20:32.472Z,99640.98
2022-08-05T16:23:01.036Z,99641.09
2022-08-05T16:25:34.200Z,99640.09
2022-08-05T16:28:10.240Z,99640.92
2022-08-05T16:30:38.873Z,99640.23
2022-08-05T16:33:09.308Z,99638.91
2022-08-05T16:35:43.012Z,99639.45
2022-08-05T16:38:18.331Z,99638.70
2022-08-05T16:41:00.129Z,99640.35
2022-08-05T16:43:32.160Z,99646.22
2022-08-05T16:46:07.275Z,99642.46
2022-08-05T16:48:45.328Z,99641.04
2022-08-05T16:51:13.185Z,99636.02
2022-08-05T16:54:04.019Z,99633.61
2022-08-05T16:56:33.880Z,99632.16
2022-08-05T16:59:08.055Z,99633.70
2022-08-05T17:01:53.038Z,99631.63
2022-08-05T17:04:27.841Z,99633.65
2022-08-05T17:07:01.242Z,99637.43
2022-08-05T17:09:30.352Z,99639.50
2022-08-05T17:12:08.339Z,99644.11
2022-08-05T17:14:39.604Z,99643.52
2022-08-05T17:17:14.848Z,99644.59
2022-08-05T17:19:45.717Z,99646.95
2022-08-05T17:22:24.508Z,99649.32
2022-08-05T17:24:58.647Z,99655.17
2022-08-05T17:27:33.922Z,99655.90
2022-08-05T17:30:12.185Z,99655.39
2022-08-05T17:32:47.163Z,99663.46
2022-08-05T17:35:20.880Z,99664.39
2022-08-05T17:37:49.457Z,99667.63
2022-08-05T17:40:22.473Z,99666.65
2022-08-05T17:42:53.272Z,99670.91
2022-08-05T17:45:29.551Z,99672.39
2022-08-05T17:48:08.022Z,99670.81
2022-08-05T17:50:36.204Z,99673.48
2022-08-05T17:53:05.309Z,99676.08
2022-08-05T17:55:37.825Z,99677.06
2022-08-05T17:58:09.396Z,99682.98
2022-08-05T18:00:39.885Z,99685.56
2022-08-05T18:03:27.988Z,99688.94
2022-08-05T18:06:06.145Z,99694.06
2022-08-05T18:08:44.638Z,99694.96
2022-08-05T18:11:24.579Z,99693.23
2022-08-05T18:14:03.475Z,99701.51
2022-08-05T18:16:33.395Z,99703.25
2022-08-05T18:19:01.890Z,99709.19
2022-08-05T18:22:07.356Z,99734.19
2022-08-05T18:24:18.484Z,99738.08
2022-08-05T18:26:48.807Z,99738.59
2022-08-05T18:29:17.531Z,99740.02
2022-08-05T18:32:06.089Z,99746.75
2022-08-05T18:34:41.318Z,99757.44
2022-08-05T18:37:12.059Z,99761.30
2022-08-05T18:40:31.646Z,99763.70
2022-08-05T18:42:29.507Z,99770.52
2022-08-05T18:44:57.162Z,99771.12
2022-08-05T18:47:26.773Z,99779.17
2022-08-05T18:50:15.541Z,99779.70
2022-08-05T18:52:51.485Z,99782.11
2022-08-05T18:55:21.637Z,99790.05
2022-08-05T18:57:53.334Z,99791.34
2022-08-05T19:00:27.042Z,99793.03
2022-08-05T19:03:04.125Z,99806.84
2022-08-05T19:06:12.348Z,99804.48
2022-08-05T19:08:30.233Z,99815.77
2022-08-05T19:11:02.760Z,99814.86
2022-08-05T19:13:36.179Z,99817.33
2022-08-05T19:16:24.877Z,99824.23
2022-08-05T19:18:57.038Z,99823.75
2022-08-05T19:21:27.694Z,99830.68
2022-08-05T19:24:06.677Z,99841.20
2022-08-05T19:26:54.147Z,99846.02
2022-08-05T19:29:35.468Z,99852.84
2022-08-05T19:32:11.562Z,99865.47
2022-08-05T19:34:40.065Z,99865.58
2022-08-05T19:37:10.089Z,99870.17
2022-08-05T19:39:45.116Z,99871.00
2022-08-05T19:42:35.973Z,99877.70
2022-08-05T19:45:06.434Z,99884.75
2022-08-05T19:47:37.201Z,99888.90
2022-08-05T19:50:07.839Z,99897.09
2022-08-05T19:52:39.025Z,99886.74
2022-08-05T19:56:11.359Z,99883.39
2022-08-05T19:58:07.128Z,99891.27
2022-08-05T20:00:42.824Z,99893.64
2022-08-05T20:03:11.285Z,99889.27
2022-08-05T20:05:49.893Z,99890.88
2022-08-05T20:08:19.525Z,99889.64
2022-08-05T20:10:49.619Z,99888.93
2022-08-05T20:13:18.185Z,99892.57
2022-08-05T20:16:01.403Z,99898.09
2022-08-05T20:18:35.791Z,99910.40
2022-08-05T20:21:06.806Z,99908.65
2022-08-05T20:23:39.620Z,99911.52
2022-08-05T20:26:21.169Z,99917.20
2022-08-05T20:28:54.083Z,99927.55
2022-08-05T20:31:36.943Z,99928.91
2022-08-05T20:34:12.552Z,99936.39
2022-08-05T20:36:43.836Z,99940.73
2022-08-05T20:39:13.548Z,99945.73
2022-08-05T20:41:47.811Z,99947.84
2022-08-05T20:44:29.674Z,99940.98
2022-08-05T20:47:04.712Z,99951.30
2022-08-05T20:49:39.628Z,99952.54
2022-08-05T20:52:10.798Z,99960.52
2022-08-05T20:54:59.591Z,99967.17
2022-08-05T20:57:43.631Z,99969.50
2022-08-05T21:00:40.284Z,99978.46
2022-08-05T21:03:06.792Z,99978.59
2022-08-05T21:05:47.867Z,99981.27
2022-08-05T21:08:33.100Z,99987.89
2022-08-05T21:11:11.793Z,100008.20
2022-08-05T21:13:56.274Z,100005.54
2022-08-05T21:16:29.738Z,100018.13
2022-08-05T21:19:00.845Z,100031.38
2022-08-05T21:21:39.119Z,100050.29
2022-08-05T21:24:12.889Z,100076.09
2022-08-05T21:26:41.561Z,100081.04
2022-08-05T21:29:12.540Z,100082.81
2022-08-05T21:31:44.481Z,100082.25
2022-08-05T21:34:16.032Z,100082.74
2022-08-05T21:36:46.560Z,100080.52
2022-08-05T21:39:26.630Z,100085.31
2022-08-05T21:42:01.075Z,100075.18
2022-08-05T21:44:31.029Z,100058.25
2022-08-05T21:47:00.365Z,100050.20
2022-08-05T21:49:58.707Z,100033.67
2022-08-05T21:52:27.749Z,100041.16
2022-08-05T21:55:06.044Z,100043.61
2022-08-05T21:57:42.505Z,100059.02
2022-08-05T22:00:12.308Z,100068.50
2022-08-05T22:02:46.783Z,100066.59
2022-08-05T22:05:16.817Z,100057.30
2022-08-05T22:07:59.190Z,100054.54
2022-08-05T22:10:29.415Z,100058.77
2022-08-05T22:14:05.203Z,100062.11
2022-08-05T22:15:56.614Z,100063.71
2022-08-05T22:18:32.732Z,100064.57
2022-08-05T22:21:04.250Z,100080.23
2022-08-05T22:24:02.383Z,100092.66
2022-08-05T22:26:50.741Z,100102.35
2022-08-05T22:29:26.541Z,100111.45
2022-08-05T22:31:59.445Z,100121.22
2022-08-05T22:34:28.812Z,100125.54
2022-08-05T22:36:58.520Z,100129.79
2022-08-05T22:39:33.362Z,100127.56
2022-08-05T22:42:12.138Z,100121.59
2022-08-05T22:44:48.385Z,100120.13
2022-08-05T22:47:30.432Z,100119.12
2022-08-05T22:50:19.514Z,100121.55
2022-08-05T22:52:52.755Z,100129.41
2022-08-05T22:55:22.134Z,100139.38
2022-08-05T22:57:55.000Z,100133.45
2022-08-05T23:00:24.496Z,100133.41
2022-08-05T23:02:54.986Z,100130.34
2022-08-05T23:05:23.296Z,100125.77
2022-08-05T23:07:52.622Z,100123.28
2022-08-05T23:10:23.408Z,100122.97
2022-08-05T23:12:54.942Z,100123.54
2022-08-05T23:15:29.351Z,100125.31
2022-08-05T23:18:11.314Z,100127.12
2022-08-05T23:20:39.984Z,100126.48
2022-08-05T23:23:11.386Z,100135.27
2022-08-05T23:25:54.968Z,100135.14
2022-08-05T23:28:29.148Z,100139.70
2022-08-05T23:31:16.280Z,100145.42
2022-08-05T23:34:04.732Z,100150.60
2022-08-05T23:36:40.125Z,100157.44
2022-08-05T23:39:16.589Z,100160.63
2022-08-05T23:41:56.276Z,100165.74
2022-08-05T23:44:27.908Z,100175.14
2022-08-05T23:47:02.505Z,100176.80
2022-08-05T23:49:47.342Z,100182.92
2022-08-05T23:52:29.372Z,100184.77
2022-08-05T23:55:08.858Z,100177.95
2022-08-05T23:57:37.270Z,100181.81
